createdAt,value
2017-11-11T00:02:01.432Z,59.70
2017-11-11T00:04:31.309Z,238.70
2017-11-11T00:07:00.732Z,98.20
2017-11-11T00:09:30.682Z,106.73
2017-11-11T00:12:00.065Z,180.63
2017-11-11T00:14:37.359Z,67.13
2017-11-11T00:17:07.186Z,77.00
2017-11-11T00:19:36.666Z,61.97
2017-11-11T00:22:09.680Z,74.50
2017-11-11T00:24:40.383Z,41.93
2017-11-11T00:27:09.894Z,128.30
2017-11-11T00:29:44.614Z,234.10
2017-11-11T00:32:18.349Z,201.23
2017-11-11T00:34:55.616Z,155.47
2017-11-11T00:37:25.394Z,132.37
2017-11-11T00:39:54.921Z,56.13
2017-11-11T00:42:25.173Z,77.70
2017-11-11T00:44:54.596Z,52.80
2017-11-11T00:47:24.633Z,144.43
2017-11-11T00:49:53.866Z,91.13
2017-11-11T00:52:24.409Z,65.53
2017-11-11T00:54:56.543Z,86.57
2017-11-11T00:57:28.479Z,184.07
2017-11-11T01:00:00.974Z,151.13
2017-11-11T01:02:30.525Z,38.93
2017-11-11T01:04:59.952Z,93.17
2017-11-11T01:07:29.721Z,83.47
2017-11-11T01:10:01.434Z,86.10
2017-11-11T01:12:31.187Z,104.63
2017-11-11T01:15:01.269Z,196.53
2017-11-11T01:17:30.729Z,112.03
2017-11-11T01:20:00.748Z,87.40
2017-11-11T01:22:31.126Z,61.73
2017-11-11T01:25:01.049Z,82.80
2017-11-11T01:27:30.863Z,78.40
2017-11-11T01:30:01.069Z,80.93
2017-11-11T01:32:30.670Z,42.93
2017-11-11T01:35:10.961Z,166.13
2017-11-11T01:37:49.988Z,143.97
2017-11-11T01:40:20.577Z,50.90
2017-11-11T01:42:52.270Z,130.00
2017-11-11T01:45:24.824Z,172.13
2017-11-11T01:47:54.458Z,60.60
2017-11-11T01:50:27.071Z,81.73
2017-11-11T01:52:58.742Z,36.87
2017-11-11T01:55:29.737Z,55.23
2017-11-11T01:58:03.254Z,63.80
2017-11-11T02:00:33.426Z,61.27
2017-11-11T02:03:03.118Z,72.57
2017-11-11T02:05:32.320Z,58.87
2017-11-11T02:08:02.524Z,72.87
2017-11-11T02:10:32.748Z,85.67
2017-11-11T02:13:03.307Z,100.37
2017-11-11T02:15:33.147Z,203.67
2017-11-11T02:18:03.056Z,90.53
2017-11-11T03:17:50.446Z,76.87
2017-11-11T03:20:21.206Z,46.90
2017-11-11T03:22:50.771Z,47.43
2017-11-11T03:25:19.962Z,35.83
2017-11-11T03:27:49.864Z,47.60
2017-11-11T03:30:19.703Z,42.00
2017-11-11T03:32:49.048Z,44.60
2017-11-11T03:35:18.990Z,47.50
2017-11-11T03:37:48.517Z,25.80
2017-11-11T03:40:48.983Z,46.93
2017-11-11T03:43:18.562Z,29.63
2017-11-11T03:45:48.749Z,83.10
2017-11-11T03:48:18.469Z,39.57
2017-11-11T03:50:47.993Z,38.87
2017-11-11T03:53:17.294Z,26.33
2017-11-11T03:55:46.829Z,36.37
2017-11-11T03:58:16.177Z,32.97
2017-11-11T04:00:45.747Z,47.47
2017-11-11T04:03:15.070Z,25.40
2017-11-11T04:05:46.777Z,38.07
2017-11-11T04:08:16.358Z,38.27
2017-11-11T04:10:45.846Z,36.63
2017-11-11T04:13:15.115Z,20.87
2017-11-11T04:15:45.118Z,46.87
2017-11-11T04:18:14.698Z,34.53
2017-11-11T04:20:44.639Z,33.43
2017-11-11T04:26:46.029Z,43.07
2017-11-11T04:29:15.155Z,36.53
2017-11-11T04:31:45.009Z,37.27
2017-11-11T04:34:14.049Z,37.00
2017-11-11T04:36:44.080Z,47.40
2017-11-11T04:39:13.459Z,22.67
2017-11-11T04:41:43.366Z,47.17
2017-11-11T04:44:12.591Z,48.47
2017-11-11T04:46:42.539Z,28.87
2017-11-11T04:49:11.859Z,38.87
2017-11-11T04:51:41.001Z,37.67
2017-11-11T04:54:11.104Z,36.43
2017-11-11T04:56:40.984Z,41.30
2017-11-11T04:59:10.112Z,28.77
2017-11-11T05:01:40.400Z,32.80
2017-11-11T05:04:09.535Z,25.27
2017-11-11T05:06:39.723Z,37.43
2017-11-11T05:09:09.329Z,21.67
2017-11-11T05:11:38.712Z,31.60
2017-11-11T05:14:08.048Z,21.80
2017-11-11T05:16:37.228Z,29.47
2017-11-11T05:19:06.406Z,22.73
2017-11-11T05:21:35.809Z,28.07
2017-11-11T05:24:05.016Z,21.43
2017-11-11T05:26:34.164Z,26.37
2017-11-11T05:29:04.095Z,25.43
2017-11-11T05:31:33.979Z,69.83
2017-11-11T05:34:03.304Z,35.37
2017-11-11T05:36:33.217Z,34.23
2017-11-11T05:39:03.166Z,26.40
2017-11-11T05:41:32.342Z,38.27
2017-11-11T05:44:01.712Z,36.63
2017-11-11T05:46:31.712Z,24.37
2017-11-11T05:49:00.903Z,24.37
2017-11-11T05:51:30.051Z,24.67
2017-11-11T05:53:59.495Z,19.77
2017-11-11T05:56:29.427Z,29.70
2017-11-11T05:58:58.632Z,31.40
2017-11-11T06:01:27.899Z,25.97
2017-11-11T06:03:57.102Z,42.47
2017-11-11T06:06:26.476Z,18.07
2017-11-11T06:08:55.669Z,26.43
2017-11-11T06:11:25.145Z,37.73
2017-11-11T06:13:54.571Z,27.97
2017-11-11T06:16:23.719Z,31.13
2017-11-11T06:18:53.206Z,27.17
2017-11-11T06:21:22.733Z,41.90
2017-11-11T06:23:52.507Z,25.00
2017-11-11T06:26:24.636Z,32.40
2017-11-11T06:29:01.506Z,32.07
2017-11-11T06:31:36.538Z,25.03
2017-11-11T06:34:07.007Z,39.33
2017-11-11T06:36:36.249Z,28.23
2017-11-11T06:39:05.728Z,29.93
2017-11-11T06:41:35.594Z,31.90
2017-11-11T06:47:04.973Z,29.70
2017-11-11T06:49:34.275Z,25.90
2017-11-11T06:52:03.503Z,33.73
2017-11-11T06:54:32.747Z,23.80
2017-11-11T06:57:01.979Z,22.50
2017-11-11T06:59:31.177Z,31.73
2017-11-11T07:02:00.490Z,33.33
2017-11-11T07:04:30.843Z,26.40
2017-11-11T07:07:00.958Z,35.53
2017-11-11T07:09:31.071Z,22.47
2017-11-11T07:12:00.458Z,42.90
2017-11-11T07:14:29.825Z,29.37
2017-11-11T07:17:00.132Z,30.13
2017-11-11T07:19:37.565Z,22.53
2017-11-11T07:22:16.781Z,30.10
2017-11-11T07:24:47.435Z,37.03
2017-11-11T07:27:18.580Z,27.83
2017-11-11T07:29:48.379Z,23.93
2017-11-11T07:32:17.558Z,27.87
2017-11-11T07:34:47.609Z,27.13
2017-11-11T07:37:17.374Z,17.53
2017-11-11T07:39:47.324Z,15.23
2017-11-11T07:42:16.935Z,27.13
2017-11-11T07:44:46.330Z,25.73
2017-11-11T07:47:15.588Z,21.80
2017-11-11T07:49:54.307Z,27.27
2017-11-11T07:52:33.378Z,18.47
2017-11-11T07:55:03.826Z,21.03
2017-11-11T07:57:33.242Z,19.33
2017-11-11T08:00:02.527Z,15.10
2017-11-11T08:02:31.882Z,24.10
2017-11-11T08:05:02.700Z,26.43
2017-11-11T08:07:33.201Z,28.40
2017-11-11T08:10:02.594Z,37.33
2017-11-11T08:12:31.865Z,17.03
2017-11-11T08:15:01.193Z,20.10
2017-11-11T08:17:30.702Z,14.87
2017-11-11T08:20:01.316Z,12.20
2017-11-11T08:22:31.014Z,19.50
2017-11-11T08:25:00.490Z,17.00
2017-11-11T08:27:31.533Z,33.27
2017-11-11T08:30:00.876Z,21.93
2017-11-11T08:32:35.384Z,14.67
2017-11-11T08:35:10.666Z,43.03
2017-11-11T08:37:40.444Z,32.33
2017-11-11T08:40:10.016Z,28.83
2017-11-11T08:42:39.919Z,36.90
2017-11-11T08:45:10.126Z,18.70
2017-11-11T08:47:39.605Z,40.87
2017-11-11T08:50:09.230Z,36.73
2017-11-11T08:52:39.005Z,18.93
2017-11-11T08:55:10.137Z,29.50
2017-11-11T08:57:39.363Z,26.33
2017-11-11T09:00:09.707Z,37.13
2017-11-11T09:02:39.451Z,113.83
2017-11-11T09:05:09.627Z,32.60
2017-11-11T09:07:39.349Z,36.53
2017-11-11T09:10:08.851Z,38.10
2017-11-11T09:12:38.464Z,38.90
2017-11-11T09:15:08.320Z,88.87
2017-11-11T09:17:38.343Z,41.80
2017-11-11T09:20:08.104Z,29.03
2017-11-11T09:22:37.938Z,56.47
2017-11-11T09:25:09.452Z,43.17
2017-11-11T09:27:45.353Z,73.87
2017-11-11T09:30:19.928Z,91.53
2017-11-11T09:32:49.713Z,46.87
2017-11-11T09:35:19.340Z,66.63
2017-11-11T09:37:49.419Z,114.50
2017-11-11T09:40:19.045Z,55.00
2017-11-11T09:42:48.995Z,106.60
2017-11-11T09:45:19.573Z,122.07
2017-11-11T09:47:48.923Z,249.97
2017-11-11T09:50:19.197Z,94.93
2017-11-11T09:52:50.610Z,87.50
2017-11-11T09:55:23.679Z,17.80
2017-11-11T09:57:53.661Z,117.03
2017-11-11T10:00:25.662Z,104.80
2017-11-11T10:02:58.744Z,31.37
2017-11-11T10:05:33.939Z,63.17
2017-11-11T10:08:06.444Z,71.70
2017-11-11T10:10:45.954Z,82.50
2017-11-11T10:13:31.873Z,52.27
2017-11-11T10:16:15.301Z,59.40
2017-11-11T10:18:53.097Z,294.80
2017-11-11T10:21:32.835Z,75.90
2017-11-11T10:24:06.495Z,40.87
2017-11-11T10:26:42.157Z,132.70
2017-11-11T10:29:20.790Z,226.63
2017-11-11T10:32:00.279Z,281.23
2017-11-11T10:34:40.803Z,146.90
2017-11-11T10:37:21.168Z,102.43
2017-11-11T10:40:06.290Z,441.43
2017-11-11T10:42:50.645Z,217.87
2017-11-11T10:45:34.153Z,135.97
2017-11-11T10:48:16.557Z,209.37
2017-11-11T10:50:57.005Z,427.07
2017-11-11T10:53:34.580Z,145.90
2017-11-11T10:56:31.652Z,273.17
2017-11-11T10:59:08.727Z,139.17
2017-11-11T11:02:01.932Z,160.87
2017-11-11T11:04:56.812Z,146.57
2017-11-11T11:07:38.707Z,237.13
2017-11-11T11:10:30.685Z,170.77
2017-11-11T11:13:14.792Z,90.07
2017-11-11T11:15:56.088Z,191.60
2017-11-11T11:18:45.613Z,202.70
2017-11-11T11:21:36.016Z,232.27
2017-11-11T11:24:07.292Z,208.07
2017-11-11T11:26:56.776Z,142.33
2017-11-11T11:29:44.322Z,138.03
2017-11-11T11:32:16.441Z,180.07
2017-11-11T11:34:46.886Z,164.00
2017-11-11T11:37:24.236Z,153.50
2017-11-11T11:39:58.139Z,108.50
2017-11-11T11:42:35.432Z,240.33
2017-11-11T11:45:15.285Z,143.03
2017-11-11T11:47:56.702Z,189.07
2017-11-11T11:50:43.359Z,152.00
2017-11-11T11:53:14.554Z,202.00
2017-11-11T11:55:55.296Z,293.90
2017-11-11T11:58:36.314Z,66.00
2017-11-11T12:01:15.241Z,237.37
2017-11-11T12:04:00.168Z,288.70
2017-11-11T12:06:36.793Z,246.20
2017-11-11T12:09:12.514Z,243.03
2017-11-11T12:11:50.575Z,239.40
2017-11-11T12:14:29.552Z,233.10
2017-11-11T12:17:12.586Z,215.20
2017-11-11T12:19:53.633Z,236.53
2017-11-11T12:22:45.123Z,185.63
2017-11-11T12:25:31.332Z,361.67
2017-11-11T12:28:01.785Z,345.60
2017-11-11T12:30:41.724Z,278.43
2017-11-11T12:33:21.104Z,403.13
2017-11-11T12:35:57.554Z,133.53
2017-11-11T12:38:32.511Z,244.23
2017-11-11T12:42:11.297Z,139.37
2017-11-11T12:44:42.537Z,147.03
2017-11-11T12:47:21.980Z,211.17
2017-11-11T12:58:39.900Z,285.67
2017-11-11T13:01:09.865Z,360.03
2017-11-11T13:03:44.807Z,159.47
2017-11-11T13:06:29.831Z,199.13
2017-11-11T13:09:12.159Z,143.30
2017-11-11T13:11:52.309Z,270.20
2017-11-11T13:14:34.937Z,261.53
2017-11-11T13:20:08.591Z,209.10
2017-11-11T13:22:56.202Z,335.97
2017-11-11T13:25:36.814Z,247.23
2017-11-11T13:28:09.745Z,84.80
2017-11-11T13:30:48.847Z,208.93
2017-11-11T13:33:35.648Z,106.87
2017-11-11T13:36:21.896Z,110.00
2017-11-11T13:39:00.388Z,260.53
2017-11-11T13:41:37.580Z,238.03
2017-11-11T13:44:14.195Z,143.93
2017-11-11T13:46:49.920Z,87.23
2017-11-11T13:49:25.784Z,128.93
2017-11-11T13:52:07.052Z,197.10
2017-11-11T13:54:44.772Z,156.73
2017-11-11T13:57:24.615Z,180.63
2017-11-11T14:00:09.400Z,214.73
2017-11-11T14:05:29.762Z,225.00
2017-11-11T14:08:11.859Z,350.30
2017-11-11T14:10:53.468Z,304.80
2017-11-11T14:13:29.744Z,344.87
2017-11-11T14:16:09.583Z,347.57
2017-11-11T14:18:54.037Z,331.53
2017-11-11T14:21:37.412Z,392.23
2017-11-11T14:24:15.745Z,267.17
2017-11-11T14:26:56.962Z,513.80
2017-11-11T14:29:46.995Z,358.93
2017-11-11T14:32:43.309Z,215.97
2017-11-11T14:35:29.701Z,170.47
2017-11-11T14:38:13.317Z,170.10
2017-11-11T14:40:47.406Z,108.87
2017-11-11T14:43:36.824Z,192.97
2017-11-11T14:46:22.600Z,396.67
2017-11-11T14:49:15.637Z,424.70
2017-11-11T14:52:05.289Z,203.00
2017-11-11T14:54:36.737Z,315.60
2017-11-11T14:57:09.672Z,48.13
2017-11-11T14:59:42.969Z,173.07
2017-11-11T15:02:21.809Z,168.70
2017-11-11T15:04:56.134Z,110.10
2017-11-11T15:07:49.023Z,152.07
2017-11-11T15:10:32.404Z,127.87
2017-11-11T15:13:11.486Z,400.13
2017-11-11T15:15:42.240Z,208.80
2017-11-11T15:18:15.849Z,178.67
2017-11-11T15:20:50.900Z,141.70
2017-11-11T15:23:24.037Z,115.07
2017-11-11T15:26:06.593Z,64.53
2017-11-11T15:28:43.374Z,173.87
2017-11-11T15:31:21.405Z,153.33
2017-11-11T15:33:59.924Z,205.90
2017-11-11T15:36:35.947Z,121.87
2017-11-11T15:39:06.682Z,344.63
2017-11-11T15:41:47.278Z,268.27
2017-11-11T15:44:33.091Z,112.03
2017-11-11T15:47:19.969Z,213.50
2017-11-11T15:50:00.109Z,192.82
2017-11-11T15:52:47.894Z,136.80
2017-11-11T15:55:30.452Z,103.77
2017-11-11T15:58:08.394Z,250.57
2017-11-11T16:00:47.958Z,306.83
2017-11-11T16:03:35.521Z,238.80
2017-11-11T16:06:12.659Z,88.77
2017-11-11T16:08:58.900Z,45.03
2017-11-11T16:11:40.158Z,136.40
2017-11-11T16:14:22.270Z,246.23
2017-11-11T16:17:00.296Z,112.30
2017-11-11T16:20:09.789Z,114.70
2017-11-11T16:22:48.948Z,82.07
2017-11-11T16:25:33.323Z,112.77
2017-11-11T16:28:12.326Z,67.50
2017-11-11T16:30:53.093Z,72.10
2017-11-11T16:33:31.648Z,117.53
2017-11-11T16:36:27.247Z,56.37
2017-11-11T16:39:14.950Z,244.70
2017-11-11T16:41:55.208Z,79.13
2017-11-11T16:44:46.926Z,60.67
2017-11-11T16:47:35.694Z,108.73
2017-11-11T16:50:26.541Z,216.70
2017-11-11T16:53:07.558Z,141.37
2017-11-11T16:55:49.663Z,209.53
2017-11-11T16:58:35.351Z,107.07
2017-11-11T17:01:22.378Z,259.97
2017-11-11T17:04:02.364Z,123.93
2017-11-11T17:06:50.403Z,150.90
2017-11-11T17:09:36.917Z,127.77
2017-11-11T17:12:18.221Z,140.37
2017-11-11T17:14:57.619Z,176.57
2017-11-11T17:17:48.862Z,91.87
2017-11-11T17:20:20.774Z,72.60
2017-11-11T17:23:06.663Z,76.33
2017-11-11T17:25:53.007Z,99.53
2017-11-11T17:28:34.601Z,74.80
2017-11-11T17:31:15.626Z,74.67
2017-11-11T17:34:00.085Z,59.47
2017-11-11T17:39:30.895Z,50.00
2017-11-11T17:42:15.632Z,129.13
2017-11-11T17:45:08.118Z,148.23
2017-11-11T17:47:55.993Z,132.10
2017-11-11T17:50:39.914Z,127.17
2017-11-11T17:53:27.989Z,150.50
2017-11-11T17:56:16.627Z,141.53
2017-11-11T17:59:03.347Z,260.43
2017-11-11T18:01:58.580Z,108.27
2017-11-11T18:04:41.088Z,153.87
2017-11-11T18:07:13.963Z,140.70
2017-11-11T18:09:56.752Z,104.67
2017-11-11T18:12:39.947Z,144.30
2017-11-11T18:15:20.551Z,341.70
2017-11-11T18:18:02.752Z,225.00
2017-11-11T18:20:50.850Z,152.20
2017-11-11T18:23:44.522Z,143.57
2017-11-11T18:26:27.174Z,162.80
2017-11-11T18:29:00.906Z,213.87
2017-11-11T18:32:09.529Z,167.13
2017-11-11T18:35:11.269Z,495.97
2017-11-11T18:37:53.100Z,172.33
2017-11-11T18:40:42.536Z,222.53
2017-11-11T18:43:33.229Z,173.87
2017-11-11T18:46:23.060Z,189.87
2017-11-11T18:49:12.972Z,112.87
2017-11-11T18:52:07.358Z,138.13
2017-11-11T18:54:51.749Z,140.80
2017-11-11T18:57:37.340Z,187.70
2017-11-11T19:00:07.186Z,197.80
2017-11-11T19:02:50.483Z,109.17
2017-11-11T19:05:39.104Z,397.17
2017-11-11T19:08:14.927Z,158.47
2017-11-11T19:10:57.279Z,104.40
2017-11-11T19:13:44.712Z,234.03
2017-11-11T19:16:15.893Z,212.80
2017-11-11T19:18:59.108Z,339.43
2017-11-11T19:21:42.335Z,466.03
2017-11-11T19:24:29.080Z,107.80
2017-11-11T19:27:11.475Z,136.57
2017-11-11T19:29:49.701Z,326.23
2017-11-11T19:32:31.721Z,513.63
2017-11-11T19:35:17.002Z,101.27
2017-11-11T19:37:51.322Z,169.53
2017-11-11T19:40:34.427Z,97.47
2017-11-11T19:43:07.818Z,149.90
2017-11-11T19:45:58.658Z,205.20
2017-11-11T19:48:40.858Z,123.47
2017-11-11T19:51:11.087Z,283.63
2017-11-11T19:53:49.924Z,215.50
2017-11-11T19:56:26.180Z,175.53
2017-11-11T19:58:57.297Z,165.77
2017-11-11T20:01:28.010Z,487.00
2017-11-11T20:04:03.184Z,316.67
2017-11-11T20:06:34.932Z,150.80
2017-11-11T20:09:16.949Z,175.87
2017-11-11T20:12:02.706Z,135.17
2017-11-11T20:14:36.138Z,159.17
2017-11-11T20:17:18.670Z,96.27
2017-11-11T20:20:04.716Z,274.83
2017-11-11T20:22:49.911Z,164.67
2017-11-11T20:25:20.684Z,145.93
2017-11-11T20:28:04.251Z,280.00
2017-11-11T20:30:40.980Z,175.47
2017-11-11T20:33:22.794Z,207.13
2017-11-11T20:36:10.807Z,244.80
2017-11-11T20:38:44.490Z,267.80
2017-11-11T20:41:22.891Z,279.13
2017-11-11T20:43:52.839Z,180.60
2017-11-11T20:46:35.226Z,231.67
2017-11-11T20:49:21.059Z,328.40
2017-11-11T20:52:09.113Z,351.63
2017-11-11T20:54:41.053Z,233.20
2017-11-11T20:57:13.304Z,305.07
2017-11-11T20:59:46.810Z,251.80
2017-11-11T21:02:23.454Z,424.40
2017-11-11T21:05:11.737Z,323.57
2017-11-11T21:07:59.660Z,253.57
2017-11-11T21:10:43.431Z,287.80
2017-11-11T21:16:28.458Z,207.50
2017-11-11T21:19:13.454Z,171.27
2017-11-11T21:22:00.338Z,248.37
2017-11-11T21:24:59.475Z,220.93
2017-11-11T21:27:46.133Z,136.87
2017-11-11T21:30:30.663Z,158.97
2017-11-11T21:33:03.296Z,180.63
2017-11-11T21:35:41.654Z,210.30
2017-11-11T21:38:24.969Z,162.40
2017-11-11T21:41:05.805Z,396.37
2017-11-11T21:43:43.351Z,307.90
2017-11-11T21:46:24.404Z,244.27
2017-11-11T21:48:56.453Z,261.73
2017-11-11T21:51:41.261Z,352.30
2017-11-11T21:54:12.757Z,173.67
2017-11-11T21:56:43.261Z,156.43
2017-11-11T21:59:25.652Z,189.93
2017-11-11T22:01:55.348Z,185.93
2017-11-11T22:04:25.192Z,240.50
2017-11-11T22:07:03.933Z,295.53
2017-11-11T22:09:53.959Z,274.83
2017-11-11T22:12:39.477Z,229.13
2017-11-11T22:15:21.148Z,405.53
2017-11-11T22:17:57.776Z,611.90
2017-11-11T22:20:42.049Z,282.90
2017-11-11T22:23:38.071Z,236.37
2017-11-11T22:26:23.783Z,330.53
2017-11-11T22:28:54.427Z,151.97
2017-11-11T22:31:35.809Z,124.10
2017-11-11T22:34:06.478Z,206.50
2017-11-11T22:36:44.496Z,170.37
2017-11-11T22:39:15.692Z,191.63
2017-11-11T22:42:02.200Z,233.90
2017-11-11T22:44:31.974Z,285.60
2017-11-11T22:47:01.380Z,195.47
2017-11-11T22:49:31.618Z,193.37
2017-11-11T22:52:16.257Z,273.57
2017-11-11T22:54:46.980Z,272.23
2017-11-11T22:57:17.271Z,199.80
2017-11-11T22:59:48.762Z,212.40
2017-11-11T23:02:19.229Z,216.30
2017-11-11T23:04:57.976Z,272.17
2017-11-11T23:07:29.285Z,243.23
2017-11-11T23:10:10.806Z,228.63
2017-11-11T23:13:00.025Z,210.40
2017-11-11T23:15:30.420Z,254.47
2017-11-11T23:18:03.737Z,200.27
2017-11-11T23:20:37.639Z,150.43
2017-11-11T23:23:19.511Z,169.43
2017-11-11T23:25:57.982Z,174.20
2017-11-11T23:28:27.639Z,169.37
2017-11-11T23:30:59.358Z,152.03
2017-11-11T23:33:30.760Z,227.17
2017-11-11T23:36:04.364Z,231.83
2017-11-11T23:38:42.032Z,176.53
2017-11-11T23:41:15.589Z,138.57
2017-11-11T23:43:53.579Z,226.07
2017-11-11T23:46:24.767Z,243.37
2017-11-11T23:49:01.500Z,165.03
2017-11-11T23:51:32.397Z,233.17
2017-11-11T23:54:06.079Z,179.33
2017-11-11T23:56:36.749Z,210.83
2017-11-11T23:59:08.009Z,186.30
